Time;durP1;ratioP1;P1;durP2;ratioP2;P2;SDS_P1;SDS_P2;PMS_P1;PMS_P2;Temp;Humidity;BMP_temperature;BMP_pressure;BME280_temperature;BME280_humidity;BME280_pressure;Samples;Min_cycle;Max_cycle;Signal;HPM_P1;HPM_P2
2022/07/03 00:00:38;;;;;;;9.48;8.57;;;22.20;99.90;;;;;;5072881;28;20036;-79
2022/07/03 00:03:04;;;;;;;8.80;7.93;;;22.20;99.90;;;;;;5074595;28;20021;-78
2022/07/03 00:05:29;;;;;;;8.25;7.25;;;22.10;99.90;;;;;;5074011;28;20089;-79
2022/07/03 00:07:56;;;;;;;8.90;7.55;;;22.10;99.90;;;;;;5073699;28;20028;-78
2022/07/03 00:10:22;;;;;;;10.45;7.45;;;22.10;99.90;;;;;;5074188;28;20016;-79
2022/07/03 00:12:48;;;;;;;8.27;7.47;;;22.10;99.90;;;;;;5073808;28;20031;-78
2022/07/03 00:15:14;;;;;;;8.52;7.70;;;22.10;99.90;;;;;;5074349;28;20056;-79
2022/07/03 00:17:39;;;;;;;12.45;8.23;;;22.10;99.90;;;;;;5072797;28;20032;-78
2022/07/03 00:20:06;;;;;;;7.90;7.10;;;22.10;99.90;;;;;;5072598;28;20021;-78
2022/07/03 00:22:36;;;;;;;9.50;8.35;;;22.10;99.90;;;;;;5073000;28;20056;-79
2022/07/03 00:25:05;;;;;;;10.07;8.43;;;22.10;99.90;;;;;;5073943;28;20119;-79
2022/07/03 00:27:33;;;;;;;8.65;7.75;;;22.00;99.90;;;;;;5073694;28;20051;-78
2022/07/03 00:30:01;;;;;;;10.02;8.25;;;22.00;99.90;;;;;;5074223;28;20040;-78
2022/07/03 00:32:28;;;;;;;9.20;8.32;;;22.00;99.90;;;;;;5072317;28;20024;-78
2022/07/03 00:34:56;;;;;;;9.50;7.78;;;22.00;99.90;;;;;;5073258;28;20049;-78
2022/07/03 00:37:23;;;;;;;7.40;5.80;;;21.90;99.90;;;;;;5073905;28;20032;-78
2022/07/03 00:39:49;;;;;;;10.48;9.20;;;21.90;99.90;;;;;;5072513;28;20407;-79
2022/07/03 00:42:16;;;;;;;9.52;8.55;;;21.90;99.90;;;;;;5072163;28;20473;-79
2022/07/03 00:44:48;;;;;;;9.30;8.50;;;21.90;99.90;;;;;;5072365;28;20494;-78
2022/07/03 00:47:15;;;;;;;9.23;8.27;;;21.90;99.90;;;;;;5073885;28;20056;-78
2022/07/03 00:49:46;;;;;;;13.98;8.73;;;21.90;99.90;;;;;;5072317;28;20032;-78
2022/07/03 00:52:13;;;;;;;8.95;8.00;;;21.80;99.90;;;;;;5073723;28;20055;-78
2022/07/03 00:54:50;;;;;;;9.57;8.75;;;21.80;99.90;;;;;;5073345;28;20036;-78
2022/07/03 00:57:17;;;;;;;10.30;9.30;;;21.80;99.90;;;;;;5073702;28;20055;-78
2022/07/03 00:59:43;;;;;;;8.27;7.40;;;21.80;99.90;;;;;;5073621;28;20017;-77
2022/07/03 01:02:33;;;;;;;9.82;8.05;;;21.80;99.90;;;;;;5073017;28;20089;-77
2022/07/03 01:05:02;;;;;;;8.23;7.50;;;21.80;99.90;;;;;;5051908;28;20044;-77
2022/07/03 01:08:06;;;;;;;10.63;7.68;;;21.80;99.90;;;;;;5073557;28;20070;-78
2022/07/03 01:10:49;;;;;;;8.02;7.22;;;21.80;99.90;;;;;;5049730;28;20044;-78
2022/07/03 01:13:28;;;;;;;10.43;7.53;;;21.90;99.90;;;;;;5073560;28;20463;-78
2022/07/03 01:16:02;;;;;;;9.75;7.90;;;22.00;99.90;;;;;;5073233;28;20024;-78
2022/07/03 01:18:53;;;;;;;9.13;7.45;;;22.00;99.90;;;;;;5073498;28;20101;-78
2022/07/03 01:21:25;;;;;;;10.23;7.75;;;22.00;99.90;;;;;;5072227;28;20025;-78
2022/07/03 01:24:34;;;;;;;8.75;7.60;;;22.00;99.90;;;;;;5073012;28;20479;-79
2022/07/03 01:27:06;;;;;;;7.65;6.50;;;22.00;99.90;;;;;;5055084;28;20372;-80
2022/07/03 01:29:58;;;;;;;12.48;8.15;;;22.10;99.90;;;;;;5072981;28;20024;-78
2022/07/03 01:32:29;;;;;;;9.75;6.43;;;22.00;99.90;;;;;;5073796;28;20413;-79
2022/07/03 01:34:57;;;;;;;9.20;7.35;;;22.00;99.90;;;;;;5077512;28;20111;-78
2022/07/03 01:37:27;;;;;;;9.38;6.82;;;22.00;99.90;;;;;;5076980;28;20126;-79
2022/07/03 01:39:53;;;;;;;12.23;8.25;;;22.00;99.90;;;;;;5077051;28;20027;-78
2022/07/03 01:42:21;;;;;;;9.18;8.27;;;21.90;99.90;;;;;;5076946;28;20024;-77
2022/07/03 01:44:50;;;;;;;8.77;7.35;;;22.00;99.90;;;;;;5076527;28;20060;-78
2022/07/03 01:47:18;;;;;;;7.93;7.22;;;21.90;99.90;;;;;;5076870;28;20103;-77
2022/07/03 01:49:44;;;;;;;9.45;7.72;;;21.90;99.90;;;;;;5075539;28;20082;-78
2022/07/03 01:52:11;;;;;;;10.27;6.38;;;21.90;99.90;;;;;;5075206;28;20115;-78
2022/07/03 01:54:39;;;;;;;8.25;5.47;;;21.80;99.90;;;;;;5076686;28;20067;-79
2022/07/03 01:57:08;;;;;;;7.65;5.70;;;21.70;99.90;;;;;;5076651;28;20053;-77
2022/07/03 01:59:35;;;;;;;6.32;5.68;;;21.80;99.90;;;;;;5076414;28;20521;-78
2022/07/03 02:02:18;;;;;;;12.07;6.32;;;21.70;99.90;;;;;;5076399;28;20032;-78
2022/07/03 02:05:07;;;;;;;8.38;6.18;;;21.80;99.90;;;;;;5074919;28;20039;-78
2022/07/03 02:07:44;;;;;;;7.78;6.57;;;21.80;99.90;;;;;;5076526;28;20032;-78
2022/07/03 02:10:15;;;;;;;10.27;7.82;;;21.70;99.90;;;;;;5076572;28;20017;-78
2022/07/03 02:12:53;;;;;;;10.18;7.03;;;21.70;99.90;;;;;;5076388;28;20025;-79
2022/07/03 02:15:29;;;;;;;10.52;6.78;;;21.70;99.90;;;;;;5075149;28;20067;-79
2022/07/03 02:17:56;;;;;;;9.85;7.72;;;21.80;99.90;;;;;;5076285;28;20042;-79
2022/07/03 02:20:24;;;;;;;8.27;7.38;;;21.80;99.90;;;;;;5075938;28;20053;-78
2022/07/03 02:22:59;;;;;;;6.93;5.80;;;21.80;99.90;;;;;;5075925;28;20450;-79
2022/07/03 02:25:41;;;;;;;9.20;5.90;;;21.80;99.90;;;;;;5076075;28;20649;-80
2022/07/03 02:28:33;;;;;;;8.65;6.63;;;21.70;99.90;;;;;;5074642;28;20051;-79
2022/07/03 02:31:03;;;;;;;7.70;6.90;;;21.70;99.90;;;;;;5075894;28;20025;-79
2022/07/03 02:33:31;;;;;;;9.82;5.80;;;21.70;99.90;;;;;;5076018;28;20024;-78
2022/07/03 02:35:58;;;;;;;8.23;7.35;;;21.80;99.90;;;;;;5075998;28;20035;-79
2022/07/03 02:38:26;;;;;;;9.88;7.72;;;21.70;99.90;;;;;;5074707;28;20094;-79
2022/07/03 02:41:02;;;;;;;11.52;6.05;;;21.70;99.90;;;;;;5075532;28;20077;-78
2022/07/03 02:43:28;;;;;;;12.60;6.88;;;21.70;99.90;;;;;;5075749;28;20079;-79
2022/07/03 02:49:19;;;;;;;11.95;8.02;;;21.70;99.90;;;;;;5075620;28;20040;-80
2022/07/03 02:51:53;;;;;;;9.00;5.95;;;21.60;99.90;;;;;;5075467;28;20029;-79
2022/07/03 02:54:19;;;;;;;7.78;7.07;;;21.60;99.90;;;;;;5075085;28;20056;-80
2022/07/03 02:57:00;;;;;;;8.18;7.07;;;21.60;99.90;;;;;;5074313;28;20435;-81
2022/07/03 02:59:53;;;;;;;7.80;7.00;;;21.60;99.90;;;;;;5075602;28;20059;-81
2022/07/03 03:02:22;;;;;;;10.45;8.13;;;21.60;99.90;;;;;;5073635;28;20028;-79
2022/07/03 03:05:06;;;;;;;7.88;6.43;;;21.60;99.90;;;;;;5075110;28;20033;-79
2022/07/03 03:08:05;;;;;;;9.75;6.30;;;21.50;99.90;;;;;;5074005;28;20028;-78
2022/07/03 03:10:36;;;;;;;7.93;6.60;;;21.60;99.90;;;;;;5075394;28;20028;-79
2022/07/03 03:13:07;;;;;;;8.45;6.82;;;21.60;99.90;;;;;;5075270;28;20025;-79
2022/07/03 03:15:35;;;;;;;10.70;7.90;;;21.60;99.90;;;;;;5073563;28;20379;-79
2022/07/03 03:18:04;;;;;;;9.32;6.68;;;21.50;99.90;;;;;;5075738;28;20027;-80
2022/07/03 03:20:36;;;;;;;9.10;7.43;;;21.60;99.90;;;;;;5075371;28;20163;-79
2022/07/03 03:23:40;;;;;;;10.63;7.18;;;21.60;99.90;;;;;;5074444;28;20364;-78
2022/07/03 03:26:06;;;;;;;8.73;6.28;;;21.60;99.90;;;;;;5073942;28;20102;-80
2022/07/03 03:28:32;;;;;;;11.45;8.23;;;21.50;99.90;;;;;;5075101;28;20472;-79
2022/07/03 03:30:58;;;;;;;10.50;7.38;;;21.60;99.90;;;;;;5074662;28;20045;-80
2022/07/03 03:33:25;;;;;;;9.80;7.75;;;21.60;99.90;;;;;;5074500;28;20050;-78
2022/07/03 03:35:50;;;;;;;12.15;6.88;;;21.60;99.90;;;;;;5074486;28;20152;-80
2022/07/03 03:38:17;;;;;;;9.50;6.78;;;21.60;99.90;;;;;;5073159;28;20079;-80
2022/07/03 03:40:43;;;;;;;12.70;6.65;;;21.60;99.90;;;;;;5075206;28;20034;-79
2022/07/03 03:43:09;;;;;;;14.23;8.27;;;21.60;99.90;;;;;;5073137;28;20022;-79
2022/07/03 03:45:35;;;;;;;8.40;5.53;;;21.60;99.90;;;;;;5073213;28;20044;-80
2022/07/03 03:48:01;;;;;;;9.65;5.70;;;21.50;99.90;;;;;;5074302;28;20033;-79
2022/07/03 03:50:27;;;;;;;9.82;7.13;;;21.60;99.90;;;;;;5074064;28;20093;-78
2022/07/03 03:52:53;;;;;;;10.13;7.78;;;21.60;99.90;;;;;;5073225;28;20021;-79
2022/07/03 03:55:19;;;;;;;9.50;8.55;;;21.60;99.90;;;;;;5073837;28;20024;-79
2022/07/03 03:57:45;;;;;;;17.48;10.13;;;21.60;99.90;;;;;;5073254;28;20029;-78
2022/07/03 04:00:11;;;;;;;18.15;14.02;;;21.60;99.90;;;;;;5074412;28;20033;-79
2022/07/03 04:02:37;;;;;;;18.65;13.88;;;21.60;99.90;;;;;;5074336;28;20371;-78
2022/07/03 04:05:03;;;;;;;20.77;14.25;;;21.70;99.90;;;;;;5073668;28;20043;-79
2022/07/03 04:07:29;;;;;;;16.83;12.20;;;21.70;99.90;;;;;;5073938;28;20085;-78
2022/07/03 04:09:54;;;;;;;19.85;9.40;;;21.70;99.90;;;;;;5073344;28;20447;-78
2022/07/03 04:12:20;;;;;;;9.90;7.32;;;21.70;99.90;;;;;;5074120;28;20028;-79
2022/07/03 04:14:46;;;;;;;10.60;7.00;;;21.70;99.90;;;;;;5073869;28;20043;-78
2022/07/03 04:17:12;;;;;;;6.88;4.88;;;21.80;99.90;;;;;;5072658;28;20158;-78
2022/07/03 04:19:37;;;;;;;11.38;7.28;;;21.70;99.90;;;;;;5072572;28;20089;-79
2022/07/03 04:22:08;;;;;;;9.25;4.88;;;21.70;99.90;;;;;;5073772;28;20109;-80
2022/07/03 04:24:35;;;;;;;7.88;4.60;;;21.70;99.90;;;;;;5073855;28;20094;-78
2022/07/03 04:27:01;;;;;;;8.57;3.78;;;21.70;99.90;;;;;;5073699;28;20052;-79
2022/07/03 04:29:26;;;;;;;10.25;5.15;;;21.70;99.90;;;;;;5072650;28;20040;-78
2022/07/03 04:31:52;;;;;;;11.80;5.10;;;21.70;99.90;;;;;;5072251;28;20028;-78
2022/07/03 04:34:18;;;;;;;9.43;4.68;;;21.70;99.90;;;;;;5073617;28;20032;-79
2022/07/03 04:36:44;;;;;;;12.27;5.65;;;21.70;99.90;;;;;;5073796;28;20029;-79
2022/07/03 04:39:09;;;;;;;9.27;5.82;;;21.70;99.90;;;;;;5073530;28;20126;-78
2022/07/03 04:41:35;;;;;;;12.23;5.80;;;21.70;99.90;;;;;;5072495;28;20028;-80
2022/07/03 04:44:01;;;;;;;10.55;4.95;;;21.80;99.90;;;;;;5073397;28;20059;-79
2022/07/03 04:46:27;;;;;;;9.75;4.60;;;21.80;99.90;;;;;;5073152;28;20024;-79
2022/07/03 04:48:52;;;;;;;8.85;5.45;;;21.90;99.90;;;;;;5072496;28;20540;-78
2022/07/03 04:51:18;;;;;;;10.55;6.30;;;22.00;99.90;;;;;;5073742;28;20055;-79
2022/07/03 04:53:44;;;;;;;7.95;4.45;;;22.00;99.90;;;;;;5073484;28;20025;-78
2022/07/03 04:56:10;;;;;;;7.22;4.50;;;22.00;99.90;;;;;;5073706;28;20028;-79
2022/07/03 04:58:35;;;;;;;7.90;4.30;;;22.10;99.90;;;;;;5073369;28;20021;-78
2022/07/03 05:01:01;;;;;;;10.77;4.88;;;22.10;99.90;;;;;;5073005;28;20033;-77
2022/07/03 05:03:27;;;;;;;9.07;5.50;;;22.20;99.90;;;;;;5073515;28;20116;-79
2022/07/03 05:05:53;;;;;;;10.25;5.00;;;22.20;99.90;;;;;;5072250;28;20107;-78
2022/07/03 05:08:22;;;;;;;9.55;6.70;;;22.30;99.90;;;;;;5075338;28;20028;-78
2022/07/03 05:10:48;;;;;;;7.78;6.47;;;22.40;99.90;;;;;;5077429;28;20031;-79
2022/07/03 05:13:13;;;;;;;7.30;5.75;;;22.60;99.90;;;;;;5076248;28;20371;-77
2022/07/03 05:15:39;;;;;;;7.68;5.95;;;22.70;99.90;;;;;;5077364;28;20070;-77
2022/07/03 05:18:05;;;;;;;11.20;7.05;;;22.90;99.90;;;;;;5077751;28;20344;-77
2022/07/03 05:20:31;;;;;;;12.50;6.38;;;23.00;99.90;;;;;;5077021;28;20720;-77
2022/07/03 05:23:01;;;;;;;11.13;6.30;;;23.00;99.90;;;;;;5077189;28;20466;-78
2022/07/03 05:25:29;;;;;;;9.07;6.63;;;23.10;99.90;;;;;;5077262;28;20040;-79
2022/07/03 05:27:56;;;;;;;8.45;6.35;;;23.10;99.90;;;;;;5075458;28;20426;-78
2022/07/03 05:30:23;;;;;;;11.32;5.32;;;23.10;99.90;;;;;;5077152;28;20040;-78
2022/07/03 05:32:50;;;;;;;7.35;5.90;;;23.10;99.90;;;;;;5076865;28;20086;-79
2022/07/03 05:35:16;;;;;;;8.57;5.35;;;23.20;99.90;;;;;;5075966;28;20479;-79
2022/07/03 05:37:49;;;;;;;7.63;6.85;;;;;;;;;;5076882;28;20116;-88
2022/07/03 05:40:17;;;;;;;8.27;5.63;;;;;;;;;;5074567;28;20474;-80
2022/07/03 05:42:44;;;;;;;10.02;6.30;;;;;;;;;;5074671;28;20489;-81
2022/07/03 05:45:10;;;;;;;6.65;5.95;;;;;;;;;;5075964;28;20020;-80
2022/07/03 05:47:36;;;;;;;13.15;6.55;;;;;;;;;;5076454;28;20024;-78
2022/07/03 05:50:03;;;;;;;8.98;6.75;;;;;;;;;;5075997;28;20027;-78
2022/07/03 05:52:31;;;;;;;10.93;7.18;;;;;;;;;;5076598;28;20020;-78
2022/07/03 05:54:57;;;;;;;7.93;7.07;;;;;;;;;;5076026;28;20021;-77
2022/07/03 05:57:23;;;;;;;7.68;6.90;;;;;;;;;;5075882;28;20024;-77
2022/07/03 05:59:50;;;;;;;10.55;6.75;;;;;;;;;;5075112;28;20162;-78
2022/07/03 06:02:17;;;;;;;7.15;6.20;;;;;;;;;;5073664;28;20025;-77
2022/07/03 06:04:43;;;;;;;12.40;7.07;;;;;;;;;;5074564;28;20028;-79
2022/07/03 06:07:09;;;;;;;10.50;7.10;;;;;;;;;;5073550;28;20027;-75
2022/07/03 06:09:35;;;;;;;9.25;7.30;;;;;;;;;;5070624;28;20073;-76
2022/07/03 06:12:01;;;;;;;8.18;7.35;;;;;;;;;;5074582;28;20023;-76
2022/07/03 06:14:27;;;;;;;9.48;6.82;;;;;;;;;;5074876;28;20524;-78
2022/07/03 06:16:54;;;;;;;8.30;7.22;;;;;;;;;;5073034;28;20017;-77
2022/07/03 06:19:20;;;;;;;11.55;8.30;;;;;;;;;;5073819;28;20025;-77
2022/07/03 06:21:46;;;;;;;7.50;6.88;;;;;;;;;;5074575;28;20013;-77
2022/07/03 06:24:12;;;;;;;8.25;6.78;;;;;;;;;;5074541;28;20387;-77
2022/07/03 06:26:38;;;;;;;8.77;6.72;;;;;;;;;;5074979;28;20125;-77
2022/07/03 06:29:04;;;;;;;9.82;7.20;;;;;;;;;;5074881;28;20027;-78
2022/07/03 06:31:31;;;;;;;7.95;7.15;;;;;;;;;;5073003;28;20107;-77
2022/07/03 06:33:57;;;;;;;8.40;7.60;;;;;;;;;;5074685;28;20032;-77
2022/07/03 06:36:23;;;;;;;8.55;6.43;;;;;;;;;;5073354;28;20028;-77
2022/07/03 06:38:50;;;;;;;8.38;7.05;;;;;;;;;;5075012;28;20459;-78
2022/07/03 06:41:16;;;;;;;7.60;6.80;;;;;;;;;;5074626;28;20039;-78
2022/07/03 06:43:42;;;;;;;7.40;6.78;;;;;;;;;;5075681;28;20071;-78
2022/07/03 06:46:08;;;;;;;7.82;7.13;;;;;;;;;;5074835;28;20027;-78
2022/07/03 06:48:34;;;;;;;8.10;7.30;;;;;;;;;;5074321;28;20078;-78
2022/07/03 06:51:00;;;;;;;8.88;7.97;;;;;;;;;;5073122;28;20021;-77
2022/07/03 06:53:27;;;;;;;8.43;7.63;;;;;;;;;;5073852;28;20017;-78
2022/07/03 06:55:53;;;;;;;8.77;7.93;;;;;;;;;;5074250;28;20086;-77
2022/07/03 06:58:19;;;;;;;17.73;6.70;;;;;;;;;;5073918;28;20097;-77
2022/07/03 07:00:45;;;;;;;7.43;6.03;;;;;;;;;;5072572;28;20030;-78
2022/07/03 07:03:11;;;;;;;8.95;7.30;;;;;;;;;;5074235;28;20016;-77
2022/07/03 07:05:37;;;;;;;7.63;6.82;;;;;;;;;;5074027;28;20020;-77
2022/07/03 07:08:04;;;;;;;8.18;7.38;;;;;;;;;;5074463;28;20154;-77
2022/07/03 07:10:30;;;;;;;8.55;7.70;;;;;;;;;;5069978;28;20017;-78
2022/07/03 07:12:56;;;;;;;7.95;7.18;;;;;;;;;;5074488;28;20021;-76
2022/07/03 07:15:22;;;;;;;8.80;7.90;;;;;;;;;;5074848;28;20028;-77
2022/07/03 07:17:48;;;;;;;8.63;7.65;;;;;;;;;;5074095;28;20378;-77
2022/07/03 07:20:14;;;;;;;9.30;7.07;;;;;;;;;;5073698;28;20074;-78
2022/07/03 07:22:41;;;;;;;8.85;7.95;;;;;;;;;;5074542;28;20016;-77
2022/07/03 07:25:07;;;;;;;9.25;8.43;;;;;;;;;;5073613;28;20032;-76
2022/07/03 07:27:33;;;;;;;10.45;7.15;;;;;;;;;;5071791;28;20052;-78
2022/07/03 07:30:06;;;;;;;9.75;8.73;;;;;;;;;;5073939;28;20069;-80
2022/07/03 07:32:32;;;;;;;9.50;8.02;;;;;;;;;;5073540;28;20058;-77
2022/07/03 07:34:58;;;;;;;8.90;8.10;;;;;;;;;;5073089;28;20035;-77
2022/07/03 07:37:25;;;;;;;10.90;8.90;;;;;;;;;;5074158;28;20135;-77
2022/07/03 07:39:52;;;;;;;13.15;8.20;;;;;;;;;;5074803;28;20029;-77
2022/07/03 07:42:19;;;;;;;8.60;7.80;;;;;;;;;;5074102;28;20069;-77
2022/07/03 07:44:45;;;;;;;10.35;7.10;;;;;;;;;;5074762;28;20036;-78
2022/07/03 07:47:11;;;;;;;8.20;7.50;;;;;;;;;;5073213;28;20032;-77
2022/07/03 07:49:39;;;;;;;8.88;8.00;;;;;;;;;;5074371;28;20035;-78
2022/07/03 07:52:06;;;;;;;8.88;7.63;;;;;;;;;;5074261;28;20020;-77
2022/07/03 07:54:32;;;;;;;9.77;8.88;;;;;;;;;;5074641;28;20032;-77
2022/07/03 07:56:58;;;;;;;7.90;7.13;;;;;;;;;;5073932;28;20024;-77
2022/07/03 07:59:24;;;;;;;9.75;8.48;;;;;;;;;;5074101;28;20031;-77
2022/07/03 08:07:19;;;;;;;8.18;7.40;;;;;;;;;;5073063;28;20027;-76
2022/07/03 08:09:45;;;;;;;9.90;9.00;;;;;;;;;;5072604;28;20116;-77
2022/07/03 08:12:12;;;;;;;9.10;8.30;;;;;;;;;;5073903;28;20021;-77
2022/07/03 08:14:38;;;;;;;11.13;8.70;;;;;;;;;;5072852;28;20028;-78
2022/07/03 08:17:04;;;;;;;8.60;7.85;;;;;;;;;;5072849;28;20103;-77
2022/07/03 08:19:31;;;;;;;9.05;7.38;;;;;;;;;;5071420;28;20021;-77
2022/07/03 08:21:57;;;;;;;8.70;6.38;;;;;;;;;;5072674;28;20040;-77
2022/07/03 08:24:23;;;;;;;7.20;6.70;;;;;;;;;;5072334;28;20063;-77
2022/07/03 08:26:49;;;;;;;7.18;6.47;;;;;;;;;;5072232;28;20048;-78
2022/07/03 08:29:15;;;;;;;8.40;6.88;;;;;;;;;;5072538;28;20013;-76
2022/07/03 08:31:41;;;;;;;7.00;6.38;;;;;;;;;;5073452;28;20096;-76
2022/07/03 08:34:12;;;;;;;9.02;6.38;;;;;;;;;;5073592;28;20112;-76
2022/07/03 08:36:38;;;;;;;7.78;7.15;;;;;;;;;;5072494;28;20086;-77
2022/07/03 08:39:04;;;;;;;6.68;5.70;;;;;;;;;;5073918;28;20027;-77
2022/07/03 08:41:30;;;;;;;8.68;7.72;;;;;;;;;;5072428;28;20099;-77
2022/07/03 08:43:57;;;;;;;7.82;6.50;;;;;;;;;;5071654;28;20028;-76
2022/07/03 08:46:23;;;;;;;8.63;6.95;;;;;;;;;;5072188;28;20024;-77
2022/07/03 08:48:50;;;;;;;8.27;7.32;;;;;;;;;;5072107;28;20017;-77
2022/07/03 08:51:17;;;;;;;12.43;8.20;;;;;;;;;;5070657;28;20025;-77
2022/07/03 08:53:44;;;;;;;8.98;7.30;;;;;;;;;;5072567;28;20025;-76
2022/07/03 08:56:11;;;;;;;11.32;7.57;;;;;;;;;;5073701;28;20020;-77
2022/07/03 08:58:38;;;;;;;8.30;7.60;;;;;;;;;;5073367;28;20025;-76
2022/07/03 09:01:04;;;;;;;8.25;7.50;;;;;;;;;;5073679;28;20021;-77
2022/07/03 09:03:31;;;;;;;10.45;7.80;;;;;;;;;;5072846;28;20078;-78
2022/07/03 09:05:58;;;;;;;9.40;7.47;;;;;;;;;;5071834;28;20078;-79
2022/07/03 09:08:28;;;;;;;7.72;7.10;;;;;;;;;;5072268;28;20024;-78
2022/07/03 09:10:54;;;;;;;8.98;7.93;;;;;;;;;;5069782;28;20016;-79
2022/07/03 09:13:20;;;;;;;7.88;7.18;;;;;;;;;;5071842;28;20024;-79
2022/07/03 09:15:47;;;;;;;7.57;6.65;;;;;;;;;;5072329;28;20035;-80
2022/07/03 09:18:13;;;;;;;8.57;7.07;;;;;;;;;;5069800;28;20491;-78
2022/07/03 09:20:40;;;;;;;7.43;6.82;;;;;;;;;;5071921;28;20101;-77
2022/07/03 09:23:19;;;;;;;7.45;6.70;;;;;;;;;;5072014;28;20478;-76
2022/07/03 09:25:53;;;;;;;7.93;7.22;;;;;;;;;;5070354;28;20423;-77
2022/07/03 09:28:20;;;;;;;7.10;6.50;;;;;;;;;;5069336;28;20032;-77
2022/07/03 09:31:00;;;;;;;8.40;7.40;;;;;;;;;;5072887;28;20028;-77
2022/07/03 09:33:26;;;;;;;7.88;7.00;;;;;;;;;;5070915;28;20046;-77
2022/07/03 09:35:54;;;;;;;8.48;7.68;;;;;;;;;;5072765;28;20062;-77
2022/07/03 09:38:20;;;;;;;8.88;8.00;;;;;;;;;;5071553;28;20092;-76
2022/07/03 09:40:57;;;;;;;7.65;7.05;;;;;;;;;;5072174;28;20375;-77
2022/07/03 09:43:29;;;;;;;7.05;6.40;;;;;;;;;;5070753;28;20103;-77
2022/07/03 09:46:15;;;;;;;7.72;6.75;;;;;;;;;;5072683;28;20145;-77
2022/07/03 09:48:42;;;;;;;8.95;8.18;;;;;;;;;;5028255;28;20030;-77
2022/07/03 09:51:12;;;;;;;8.93;8.23;;;;;;;;;;5030422;28;20030;-76
2022/07/03 09:53:44;;;;;;;8.88;7.93;;;;;;;;;;5026667;28;20109;-77
2022/07/03 09:56:11;;;;;;;9.57;8.70;;;;;;;;;;5032927;28;20500;-76
2022/07/03 09:58:38;;;;;;;9.57;8.43;;;;;;;;;;5032940;28;20025;-77
2022/07/03 10:01:20;;;;;;;9.38;8.60;;;;;;;;;;5032411;28;20037;-76
2022/07/03 10:03:48;;;;;;;8.43;7.70;;;;;;;;;;5033091;28;20028;-77
2022/07/03 10:06:15;;;;;;;9.38;8.55;;;;;;;;;;5032670;28;20022;-77
2022/07/03 10:08:44;;;;;;;9.00;8.20;;;;;;;;;;5015665;28;20032;-77
2022/07/03 10:11:10;;;;;;;9.25;8.45;;;;;;;;;;5032660;28;20096;-77
2022/07/03 10:13:39;;;;;;;9.90;8.98;;;;;;;;;;5032620;28;20044;-77
2022/07/03 10:16:06;;;;;;;8.45;7.85;;;;;;;;;;5015868;28;20055;-77
2022/07/03 10:18:35;;;;;;;9.10;8.25;;;;;;;;;;5034040;28;20803;-77
2022/07/03 10:21:02;;;;;;;8.98;8.27;;;;;;;;;;5017384;28;20116;-77
2022/07/03 10:23:28;;;;;;;9.40;8.60;;;;;;;;;;5033776;28;20017;-76
2022/07/03 10:25:55;;;;;;;8.52;7.65;;;;;;;;;;5057710;28;20380;-76
2022/07/03 10:28:21;;;;;;;7.43;6.35;;;;;;;;;;5075859;28;20040;-77
2022/07/03 10:30:48;;;;;;;11.55;7.00;;;;;;;;;;5075494;28;20090;-77
2022/07/03 10:33:15;;;;;;;14.48;8.73;;;;;;;;;;5074583;28;20103;-76
2022/07/03 10:35:43;;;;;;;7.70;6.90;;;;;;;;;;5073600;28;20382;-76
2022/07/03 10:38:28;;;;;;;13.80;6.55;;;;;;;;;;5074283;28;20024;-76
2022/07/03 10:46:30;;;;;;;9.65;5.40;;;;;;;;;;5073367;28;20520;-77
2022/07/03 10:48:56;;;;;;;10.13;5.40;;;;;;;;;;5074985;28;20012;-77
2022/07/03 10:51:23;;;;;;;6.90;4.90;;;;;;;;;;5074112;28;20478;-77
2022/07/03 10:53:50;;;;;;;6.97;5.00;;;;;;;;;;5072895;28;20056;-77
2022/07/03 10:56:16;;;;;;;8.38;4.40;;;;;;;;;;5073496;28;20049;-78
2022/07/03 10:58:56;;;;;;;12.88;4.55;;;;;;;;;;5073454;28;20012;-77
2022/07/03 11:01:35;;;;;;;10.38;4.85;;;;;;;;;;5074135;28;20071;-78
2022/07/03 11:04:01;;;;;;;6.95;5.05;;;;;;;;;;5072451;28;20028;-76
2022/07/03 11:06:43;;;;;;;11.55;4.68;;;;;;;;;;5073236;28;20027;-77
2022/07/03 11:09:13;;;;;;;6.50;4.72;;;;;;;;;;5075184;28;20031;-75
2022/07/03 11:11:55;;;;;;;6.20;5.35;;;;;;;;;;5069787;28;20478;-76
2022/07/03 11:14:22;;;;;;;6.57;4.53;;;;;;;;;;5071668;28;20475;-77
2022/07/03 11:16:48;;;;;;;11.13;5.28;;;;;;;;;;5073187;28;20023;-77
2022/07/03 11:19:15;;;;;;;7.60;4.45;;;;;;;;;;5072908;28;20016;-76
2022/07/03 11:21:49;;;;;;;5.18;4.68;;;;;;;;;;5073078;28;20436;-75
2022/07/03 11:24:33;;;;;;;18.02;9.57;;;;;;;;;;5072726;28;20039;-78
2022/07/03 11:27:19;;;;;;;11.90;5.75;;;;;;;;;;5071010;28;20089;-79
2022/07/03 11:29:50;;;;;;;6.53;5.82;;;;;;;;;;5072972;28;20475;-76
2022/07/03 11:32:35;;;;;;;7.88;6.75;;;;;;;;;;5071844;28;20115;-78
2022/07/03 11:35:02;;;;;;;12.88;8.15;;;;;;;;;;5072701;28;20052;-79
2022/07/03 11:37:30;;;;;;;9.00;6.97;;;;;;;;;;5073032;28;20013;-77
2022/07/03 11:39:58;;;;;;;9.48;7.68;;;;;;;;;;5072999;28;20028;-77
2022/07/03 11:42:24;;;;;;;17.20;6.82;;;;;;;;;;5072789;28;20497;-75
2022/07/03 11:44:51;;;;;;;11.63;7.78;;;;;;;;;;5073092;28;20479;-75
2022/07/03 11:47:18;;;;;;;9.18;6.60;;;;;;;;;;5073397;28;20048;-75
2022/07/03 11:49:50;;;;;;;10.88;9.88;;;;;;;;;;5073828;28;20024;-74
2022/07/03 11:52:32;;;;;;;376.77;311.35;;;;;;;;;;5072413;28;20036;-76
2022/07/03 11:54:58;;;;;;;282.05;223.73;;;;;;;;;;5070867;28;20017;-77
2022/07/03 11:57:24;;;;;;;25.15;20.55;;;;;;;;;;5071672;28;20047;-77
2022/07/03 11:59:52;;;;;;;23.15;15.30;;;;;;;;;;5072678;28;20021;-77
2022/07/03 12:02:18;;;;;;;18.80;13.45;;;;;;;;;;5074386;28;20520;-77
2022/07/03 12:04:44;;;;;;;223.50;199.52;;;;;;;;;;5076795;28;20477;-77
2022/07/03 12:07:10;;;;;;;138.00;102.65;;;;;;;;;;5076008;28;20027;-77
2022/07/03 12:09:37;;;;;;;65.07;52.00;;;;;;;;;;5077360;28;20042;-77
2022/07/03 12:12:08;;;;;;;29.70;25.13;;;;;;;;;;5072653;28;20035;-78
2022/07/03 12:14:47;;;;;;;239.23;177.98;;;;;;;;;;5073419;28;20424;-76
2022/07/03 12:17:17;;;;;;;28.67;25.63;;;;;;;;;;5072743;28;20108;-78
2022/07/03 12:19:47;;;;;;;89.03;65.85;;;;;;;;;;5076356;28;20060;-76
2022/07/03 12:22:13;;;;;;;25.77;21.88;;;;;;;;;;5073862;28;20020;-76
2022/07/03 12:24:40;;;;;;;24.95;18.67;;;;;;;;;;5073680;28;20063;-75
2022/07/03 12:27:06;;;;;;;12.15;10.88;;;;;;;;;;5073256;28;20047;-76
2022/07/03 12:29:34;;;;;;;8.02;7.28;;;;;;;;;;5071486;28;20028;-76
2022/07/03 12:32:00;;;;;;;423.70;356.50;;;;;;;;;;5073605;28;20020;-76
2022/07/03 12:34:27;;;;;;;1972.95;980.85;;;;;;;;;;5073395;28;20535;-75
2022/07/03 12:36:57;;;;;;;397.38;348.05;;;;;;;;;;5072524;28;20111;-77
2022/07/03 12:39:23;;;;;;;85.37;73.80;;;;;;;;;;5071726;28;20032;-78
2022/07/03 12:41:49;;;;;;;78.10;42.28;;;;;;;;;;5070621;28;20125;-78
2022/07/03 12:44:20;;;;;;;21.77;16.40;;;;;;;;;;5071138;28;20115;-79
2022/07/03 12:46:47;;;;;;;12.05;10.75;;;;;;;;;;5072671;28;20025;-78
2022/07/03 12:49:14;;;;;;;280.60;212.52;;;;;;;;;;5071744;28;20100;-79
2022/07/03 12:51:44;;;;;;;90.65;70.40;;;;;;;;;;5072436;28;20378;-77
2022/07/03 12:54:12;;;;;;;598.15;481.55;;;;;;;;;;5071743;28;20475;-76
2022/07/03 12:56:38;;;;;;;630.08;510.05;;;;;;;;;;5071698;28;20016;-78
2022/07/03 12:59:17;;;;;;;48.40;40.17;;;;;;;;;;5071927;28;20467;-77
2022/07/03 13:01:44;;;;;;;45.60;29.42;;;;;;;;;;5071621;28;20016;-76
2022/07/03 13:04:17;;;;;;;325.23;255.68;;;;;;;;;;5071548;28;20375;-76
2022/07/03 13:06:45;;;;;;;49.15;34.60;;;;;;;;;;5071751;28;20043;-76
2022/07/03 13:09:11;;;;;;;39.45;30.88;;;;;;;;;;5072075;28;20082;-78
2022/07/03 13:11:40;;;;;;;20.00;17.88;;;;;;;;;;5071562;28;20025;-79
2022/07/03 13:14:14;;;;;;;20.15;15.23;;;;;;;;;;5071344;28;20061;-76
2022/07/03 13:16:43;;;;;;;583.78;434.88;;;;;;;;;;5071160;28;20071;-77
2022/07/03 13:19:10;;;;;;;141.10;94.57;;;;;;;;;;5070723;28;20021;-76
2022/07/03 13:21:37;;;;;;;44.22;28.88;;;;;;;;;;5069812;28;20009;-76
2022/07/03 13:24:03;;;;;;;24.08;13.57;;;;;;;;;;5069514;28;20168;-76
2022/07/03 13:26:29;;;;;;;18.90;12.35;;;;;;;;;;5071886;28;20349;-76
2022/07/03 13:28:55;;;;;;;13.30;9.57;;;;;;;;;;5073936;28;20382;-76
2022/07/03 13:31:22;;;;;;;7.65;6.88;;;;;;;;;;5075555;28;20016;-76
2022/07/03 13:33:48;;;;;;;12.60;8.02;;;;;;;;;;5075961;28;20024;-76
2022/07/03 13:36:16;;;;;;;10.68;7.35;;;;;;;;;;5075171;28;20029;-75
2022/07/03 13:38:43;;;;;;;9.20;6.50;;;;;;;;;;5075245;28;20013;-76
2022/07/03 13:41:09;;;;;;;8.10;7.43;;;;;;;;;;5075337;28;20017;-75
2022/07/03 13:43:35;;;;;;;9.05;7.20;;;;;;;;;;5073990;28;20017;-75
2022/07/03 13:46:02;;;;;;;12.63;7.93;;;;;;;;;;5074893;28;20074;-76
2022/07/03 13:48:28;;;;;;;16.08;7.90;;;;;;;;;;5075178;28;20013;-75
2022/07/03 13:50:54;;;;;;;15.55;8.07;;;;;;;;;;5074110;28;20044;-76
2022/07/03 13:53:20;;;;;;;8.63;7.38;;;;;;;;;;5073654;28;20020;-76
2022/07/03 13:55:47;;;;;;;15.32;7.75;;;;;;;;;;5073759;28;20039;-77
2022/07/03 13:58:13;;;;;;;8.77;7.95;;;;;;;;;;5075119;28;20055;-78
2022/07/03 14:00:39;;;;;;;10.65;8.00;;;;;;;;;;5075231;28;20090;-77
2022/07/03 14:03:05;;;;;;;8.75;7.88;;;;;;;;;;5078518;28;20025;-77
2022/07/03 14:05:31;;;;;;;9.40;8.20;;;;;;;;;;5074595;28;20371;-75
2022/07/03 14:07:58;;;;;;;9.77;7.50;;;;;;;;;;5075124;28;20455;-77
2022/07/03 14:10:26;;;;;;;10.35;7.47;;;;;;;;;;5075196;28;20025;-77